Nibulon 2 — UUAT3 — position and weather

sailwx.info

Track history (hours):
 
Tides and Currents Weather Stations Pressure Air Temp Water Temp Dewpoint Dewpoint Depression Visibility Wind Speed Wind Dir Waves Ship Positions

Nibulon 2

Last reported at 2018-Jun-19 08:26 UTC. Time now 2018-Jun-20 05:28 UTC.
Position N 46°57' E 031°59'.

Length 38 m; draft 2.6 m.

Type: Towing. MMSI: 272651000.

Date/timePositionNaut miles runAvg speedWind from/ knotsBaromVisibWave heightAir tempDewpointWater temp
2018-Jun-19 08:26N 46°57' E 031°59'0 0.7
2018-Jun-19 08:00N 46°57' E 031°59'0 0.0
2018-Jun-19 07:31N 46°57' E 031°59'0 0.0
2018-Jun-19 07:00N 46°57' E 031°59'0 0.0
2018-Jun-19 06:31N 46°57' E 031°59'0 0.0
2018-Jun-19 06:00N 46°57' E 031°59'0 0.0
2018-Jun-19 05:31N 46°57' E 031°59'0 0.0
2018-Jun-19 05:01N 46°57' E 031°59'0 0.0
2018-Jun-19 04:30N 46°57' E 031°59'0 0.0
2018-Jun-19 04:01N 46°57' E 031°59'0 0.7
2018-Jun-19 03:31N 46°56' E 031°59'2 3.5
2018-Jun-19 03:00N 46°55' E 032°01'2 3.9
2018-Jun-19 02:30N 46°54' E 032°00'2 3.9
2018-Jun-19 02:00N 46°52' E 031°58'2 4.1
2018-Jun-19 01:31N 46°51' E 031°56'2 4.2
2018-Jun-19 01:00N 46°49' E 031°54'2 3.9
2018-Jun-19 00:30N 46°47' E 031°53'2 4.2
2018-Jun-19 00:00N 46°45' E 031°53'2 4.1
2018-Jun-18 23:31N 46°44' E 031°56'2 4.0
2018-Jun-18 23:00N 46°42' E 031°56'2 4.2
2018-Jun-18 22:31N 46°40' E 031°56'2 4.1
2018-Jun-18 22:01N 46°38' E 031°55'2 4.2
2018-Jun-18 21:31N 46°37' E 031°52'2 4.3
2018-Jun-18 21:00N 46°36' E 031°49'2 4.7
2018-Jun-18 20:31N 46°36' E 031°46'3 5.1
2018-Jun-18 20:00N 46°35' E 031°42'2 4.5
2018-Jun-18 19:31N 46°35' E 031°39'2 4.3
2018-Jun-18 19:00N 46°36' E 031°36'0 0.8
2018-Jun-18 18:31N 46°37' E 031°35'0 0.2
2018-Jun-18 18:00N 46°36' E 031°35'0 0.6
2018-Jun-18 17:30N 46°37' E 031°35'1 1.4
2018-Jun-18 17:00N 46°36' E 031°34'0 0.1
2018-Jun-18 16:30N 46°36' E 031°35'0 0.0
2018-Jun-18 15:44N 46°36' E 031°35'0 0.0
2018-Jun-18 15:30N 46°36' E 031°35'1 0.1
2018-Jun-18 07:17N 46°37' E 031°35'0 0.0
2018-Jun-18 06:46N 46°37' E 031°35'0 0.0
2018-Jun-18 06:19N 46°37' E 031°35'0 0.0
2018-Jun-18 05:59N 46°37' E 031°35'0 0.0
2018-Jun-18 05:30N 46°37' E 031°35'0 0.9
2018-Jun-18 04:59N 46°36' E 031°35'0 0.0
2018-Jun-18 04:29N 46°36' E 031°35'0 0.0
2018-Jun-18 03:59N 46°36' E 031°35'0 0.0
2018-Jun-18 03:29N 46°36' E 031°35'0 0.0
2018-Jun-18 02:59N 46°36' E 031°35'0 0.0
2018-Jun-18 02:29N 46°36' E 031°35'0 0.0
2018-Jun-18 01:59N 46°36' E 031°35'0 0.0
2018-Jun-18 01:29N 46°36' E 031°35'0 0.0
2018-Jun-18 00:59N 46°36' E 031°35'0 0.0
2018-Jun-18 00:29N 46°36' E 031°35'0 0.0
2018-Jun-17 23:59N 46°36' E 031°35'0 0.0
2018-Jun-17 23:29N 46°36' E 031°35'0 0.0
2018-Jun-17 22:57N 46°36' E 031°35'0 0.0
2018-Jun-17 22:30N 46°36' E 031°35'2 1.5
2018-Jun-17 21:02N 46°36' E 031°39'1 3.6
2018-Jun-17 20:52N 46°35' E 031°40'1 3.6
2018-Jun-17 20:30N 46°35' E 031°41'2 3.5
2018-Jun-17 20:00N 46°36' E 031°44'2 3.5
2018-Jun-17 19:30N 46°36' E 031°47'2 3.5
2018-Jun-17 18:59N 46°36' E 031°49'2 3.6
2018-Jun-17 18:30N 46°37' E 031°51'2 3.5
2018-Jun-17 18:00N 46°37' E 031°53'2 3.6
2018-Jun-17 17:30N 46°39' E 031°55'2 3.8
2018-Jun-17 17:00N 46°40' E 031°56'2 3.6
2018-Jun-17 16:30N 46°42' E 031°56'2 3.4
2018-Jun-17 16:00N 46°44' E 031°55'2 3.6
2018-Jun-17 15:30N 46°45' E 031°53'2 4.0
2018-Jun-17 15:00N 46°47' E 031°53'2 3.4
2018-Jun-17 14:30N 46°49' E 031°54'2 3.8
2018-Jun-17 14:00N 46°50' E 031°56'2 3.8
2018-Jun-17 13:30N 46°52' E 031°58'2 3.7
2018-Jun-17 13:00N 46°53' E 031°60'2 3.7
2018-Jun-17 12:30N 46°55' E 032°01'1 2.9
2018-Jun-17 12:00N 46°56' E 032°01'1 2.3
2018-Jun-17 11:30N 46°56' E 031°59'0 0.1
2018-Jun-17 11:00N 46°56' E 031°59'0 0.5
2018-Jun-17 10:30N 46°57' E 031°59'0 0.0
2018-Jun-17 10:00N 46°57' E 031°59'0 0.4
2018-Jun-17 09:30N 46°57' E 031°59'0 0.0
2018-Jun-17 09:00N 46°57' E 031°59'0 0.0
2018-Jun-17 08:30N 46°57' E 031°59'0 0.0
2018-Jun-17 08:00N 46°57' E 031°59'0 0.0
2018-Jun-17 07:30N 46°57' E 031°59'0 0.0
2018-Jun-17 07:00N 46°57' E 031°59'0 0.2
2018-Jun-17 06:31N 46°56' E 031°59'0 0.2
2018-Jun-17 06:00N 46°57' E 031°59'0 0.0
2018-Jun-17 05:30N 46°57' E 031°59'0 0.0
2018-Jun-17 05:00N 46°57' E 031°59'0 0.0
2018-Jun-17 04:30N 46°57' E 031°59'0 0.0
2018-Jun-17 04:00N 46°57' E 031°59'0 0.0
2018-Jun-17 03:30N 46°57' E 031°59'0 0.0
2018-Jun-17 03:00N 46°57' E 031°59'0 0.0
2018-Jun-17 02:30N 46°57' E 031°59'0 0.2
2018-Jun-17 01:59N 46°57' E 031°59'0 0.9
2018-Jun-17 01:30N 46°56' E 031°58'0 0.0
2018-Jun-17 01:00N 46°56' E 031°58'0 0.0
2018-Jun-17 00:30N 46°56' E 031°58'0 0.1
2018-Jun-17 00:01N 46°56' E 031°59'0 0.9
2018-Jun-16 23:30N 46°56' E 031°59'2 3.7
2018-Jun-16 23:00N 46°55' E 032°01'2 4.7
2018-Jun-16 22:30N 46°53' E 031°59'2 4.8
2018-Jun-16 22:00N 46°51' E 031°57'2 4.8
2018-Jun-16 21:30N 46°49' E 031°55'2 4.3
2018-Jun-16 21:00N 46°47' E 031°53'2 4.6
2018-Jun-16 20:31N 46°45' E 031°53'2 4.6
2018-Jun-16 20:00N 46°43' E 031°56'2 4.6
2018-Jun-16 19:30N 46°41' E 031°56'2 4.6
2018-Jun-16 19:00N 46°39' E 031°56'2 4.9
2018-Jun-16 18:30N 46°37' E 031°53'3 5.1
2018-Jun-16 18:00N 46°36' E 031°50'3 5.1
2018-Jun-16 17:30N 46°36' E 031°46'2 4.8
2018-Jun-16 17:00N 46°35' E 031°43'2 4.4
2018-Jun-16 16:29N 46°35' E 031°39'3 4.8
2018-Jun-16 15:49N 46°36' E 031°35'0 0.1
2018-Jun-16 15:19N 46°36' E 031°35'0 0.3
2018-Jun-16 14:55N 46°36' E 031°35'0 0.1
2018-Jun-16 13:41N 46°36' E 031°35'1 7.8
2018-Jun-16 13:30N 46°35' E 031°33'9 7.0
2018-Jun-16 12:10N 46°35' E 031°20'1 7.5
2018-Jun-16 11:59N 46°35' E 031°18'12 2.2
2018-Jun-16 06:47N 46°36' E 031°35'0 1.1
2018-Jun-16 06:30N 46°36' E 031°34'3 4.7
2018-Jun-16 05:58N 46°35' E 031°31'2 5.2
2018-Jun-16 05:29N 46°35' E 031°27'3 5.3
2018-Jun-16 05:00N 46°35' E 031°23'3 5.4
2018-Jun-16 04:30N 46°35' E 031°19'2 4.8
2018-Jun-16 04:00N 46°34' E 031°16'0 0.1
2018-Jun-16 02:48N 46°34' E 031°16'0 0.0
2018-Jun-16 02:27N 46°34' E 031°16'0 0.1
2018-Jun-16 02:00N 46°34' E 031°16'0 0.1
2018-Jun-15 23:09N 46°34' E 031°16'0 0.0
2018-Jun-15 21:15N 46°34' E 031°16'12 1.3
2018-Jun-15 12:01N 46°35' E 031°34'1 4.5
2018-Jun-15 11:52N 46°36' E 031°35'0 0.1
2018-Jun-15 07:19N 46°36' E 031°34'1 2.9
2018-Jun-15 06:57N 46°35' E 031°34'3 4.8
2018-Jun-15 06:15N 46°36' E 031°29'1 5.7
2018-Jun-15 06:00N 46°35' E 031°27'4 5.5
2018-Jun-15 05:19N 46°35' E 031°21'2 5.6
2018-Jun-15 04:55N 46°35' E 031°18'2 3.1
2018-Jun-15 04:24N 46°34' E 031°16'0 0.0
2018-Jun-15 04:00N 46°34' E 031°16'0 0.0
2018-Jun-15 03:30N 46°34' E 031°16'0 0.0
2018-Jun-15 02:54N 46°34' E 031°16'0 0.0
2018-Jun-15 02:24N 46°34' E 031°16'0 0.0
2018-Jun-15 01:43N 46°34' E 031°16'0 0.0
2018-Jun-15 01:22N 46°34' E 031°16'0 0.1
2018-Jun-15 00:59N 46°34' E 031°16'0 0.1
2018-Jun-15 00:30N 46°34' E 031°16'0 0.0
2018-Jun-15 00:00N 46°34' E 031°16'0 0.0
2018-Jun-14 22:51N 46°34' E 031°16'0 0.1
2018-Jun-14 22:30N 46°34' E 031°16'0 0.0
2018-Jun-14 22:00N 46°34' E 031°16'0 0.0
2018-Jun-14 21:24N 46°34' E 031°16'0 0.0
2018-Jun-14 20:26N 46°34' E 031°16'0 0.0
2018-Jun-14 20:00N 46°34' E 031°16'0 0.0
2018-Jun-14 19:30N 46°34' E 031°16'0 0.0
2018-Jun-14 18:58N 46°34' E 031°16'0 0.0
2018-Jun-14 18:28N 46°34' E 031°16'0 0.0
2018-Jun-14 18:00N 46°34' E 031°16'0 0.0
2018-Jun-14 17:29N 46°34' E 031°16'0 0.0
2018-Jun-14 16:58N 46°34' E 031°16'0 0.0
2018-Jun-14 16:30N 46°34' E 031°16'0 0.0
2018-Jun-14 16:00N 46°34' E 031°16'0 0.0
2018-Jun-14 15:30N 46°34' E 031°16'0 0.0
2018-Jun-14 15:00N 46°34' E 031°16'0 0.0
2018-Jun-14 14:30N 46°34' E 031°16'0 0.0
2018-Jun-14 14:00N 46°34' E 031°16'0 0.0
2018-Jun-14 13:30N 46°34' E 031°16'0 0.0
2018-Jun-14 12:59N 46°34' E 031°16'0 0.0
2018-Jun-14 12:26N 46°34' E 031°16'0 0.0
2018-Jun-14 12:00N 46°34' E 031°16'0 0.0
2018-Jun-14 11:30N 46°34' E 031°16'0 0.0
2018-Jun-14 10:59N 46°34' E 031°16'0 0.0
2018-Jun-14 10:27N 46°34' E 031°16'0 0.0
2018-Jun-14 10:00N 46°34' E 031°16'0 0.0
2018-Jun-14 09:28N 46°34' E 031°16'0 0.0
2018-Jun-14 08:59N 46°34' E 031°16'0 0.0
2018-Jun-14 08:15N 46°34' E 031°16'0 0.0
2018-Jun-14 07:57N 46°34' E 031°16'0 0.0
2018-Jun-14 07:30N 46°34' E 031°16'0 0.0
2018-Jun-14 07:00N 46°34' E 031°16'0 0.0
2018-Jun-14 06:30N 46°34' E 031°16'0 0.0
2018-Jun-14 06:00N 46°34' E 031°16'0 0.4
2018-Jun-14 05:28N 46°35' E 031°16'1 2.2
2018-Jun-14 05:00N 46°35' E 031°17'2 3.7
2018-Jun-14 04:30N 46°35' E 031°20'2 3.7
2018-Jun-14 04:00N 46°35' E 031°23'2 3.6
2018-Jun-14 03:30N 46°35' E 031°25'2 3.8
2018-Jun-14 03:00N 46°35' E 031°28'2 3.3
2018-Jun-14 02:30N 46°36' E 031°30'1 1.5
2018-Jun-14 02:00N 46°36' E 031°31'0 0.0
2018-Jun-14 01:30N 46°36' E 031°31'0 0.0
2018-Jun-14 01:00N 46°36' E 031°31'0 0.0
2018-Jun-14 00:30N 46°36' E 031°31'0 0.0
2018-Jun-14 00:00N 46°36' E 031°31'0 0.0
2018-Jun-13 23:30N 46°36' E 031°31'0 0.0
2018-Jun-13 23:00N 46°36' E 031°31'0 0.0
2018-Jun-13 22:30N 46°36' E 031°31'0 0.0
2018-Jun-13 22:00N 46°36' E 031°31'0 0.0
2018-Jun-13 21:30N 46°36' E 031°31'0 0.7
2018-Jun-13 21:00N 46°35' E 031°31'2 3.5
2018-Jun-13 20:30N 46°35' E 031°33'2 3.5
2018-Jun-13 20:00N 46°36' E 031°35'1 1.2
2018-Jun-13 19:30N 46°36' E 031°35'0 0.1
2018-Jun-13 19:00N 46°36' E 031°35'0 0.1
2018-Jun-13 18:30N 46°36' E 031°35'0 0.1
2018-Jun-13 18:00N 46°36' E 031°35'0 0.0
2018-Jun-13 17:30N 46°36' E 031°35'0 0.0
2018-Jun-13 17:00N 46°36' E 031°35'0 0.1
2018-Jun-13 16:30N 46°36' E 031°35'0 0.0
2018-Jun-13 16:00N 46°36' E 031°35'0 0.0
2018-Jun-13 15:30N 46°36' E 031°35'0 0.0
2018-Jun-13 15:00N 46°36' E 031°35'0 0.0
2018-Jun-13 14:30N 46°36' E 031°35'0 0.0
2018-Jun-13 14:00N 46°36' E 031°35'0 0.0
2018-Jun-13 13:30N 46°36' E 031°35'0 0.0
2018-Jun-13 13:00N 46°36' E 031°35'0 0.0
2018-Jun-13 12:30N 46°36' E 031°35'0 0.0
2018-Jun-13 11:57N 46°36' E 031°35'0 0.0
2018-Jun-13 11:26N 46°36' E 031°35'0 0.0
2018-Jun-13 10:01N 46°36' E 031°35'0 0.0
2018-Jun-13 09:48N 46°36' E 031°35'0 0.0
2018-Jun-13 09:25N 46°36' E 031°35'0 0.0
2018-Jun-13 08:07N 46°36' E 031°35'0 0.9
2018-Jun-13 08:00N 46°36' E 031°36'1 2.2
2018-Jun-13 07:26N 46°36' E 031°37'4 3.9
2018-Jun-13 06:21N 46°35' E 031°43'1 3.8
2018-Jun-13 06:00N 46°35' E 031°45'2 3.7
2018-Jun-13 05:27N 46°36' E 031°48'2 3.5
2018-Jun-13 05:00N 46°36' E 031°50'2 3.5
2018-Jun-13 04:30N 46°37' E 031°52'2 3.4
2018-Jun-13 04:00N 46°38' E 031°54'2 3.8
2018-Jun-13 03:30N 46°39' E 031°56'2 3.8
2018-Jun-13 03:00N 46°41' E 031°56'2 3.9
2018-Jun-13 02:30N 46°43' E 031°56'2 3.8
2018-Jun-13 02:00N 46°45' E 031°54'2 3.8
2018-Jun-13 01:30N 46°46' E 031°53'2 3.9
2018-Jun-13 01:00N 46°48' E 031°53'2 4.2
2018-Jun-13 00:30N 46°50' E 031°55'2 4.1
2018-Jun-13 00:00N 46°51' E 031°57'2 4.0
2018-Jun-12 23:30N 46°53' E 031°59'2 4.0
2018-Jun-12 23:00N 46°55' E 032°01'2 3.1
2018-Jun-12 22:30N 46°56' E 031°60'1 1.2
2018-Jun-12 22:00N 46°56' E 031°59'0 0.6
2018-Jun-12 21:30N 46°56' E 031°59'0 0.6
2018-Jun-12 21:00N 46°56' E 031°59'0 0.1
2018-Jun-12 20:30N 46°56' E 031°59'0 0.2
2018-Jun-12 20:00N 46°57' E 031°59'0 0.2
2018-Jun-12 19:30N 46°57' E 031°59'0 0.0
2018-Jun-12 19:00N 46°57' E 031°59'0 0.0
2018-Jun-12 18:30N 46°57' E 031°59'0 0.0
2018-Jun-12 17:59N 46°57' E 031°59'0 0.0
2018-Jun-12 17:30N 46°57' E 031°59'0 0.0
2018-Jun-12 17:00N 46°57' E 031°59'0 0.0
2018-Jun-12 16:30N 46°57' E 031°59'0 0.0
2018-Jun-12 16:00N 46°57' E 031°59'0 0.1
2018-Jun-12 15:30N 46°57' E 031°59'0 0.1
2018-Jun-12 15:00N 46°57' E 031°59'0 0.2
2018-Jun-12 14:30N 46°57' E 031°59'0 0.0
2018-Jun-12 14:00N 46°57' E 031°59'0 0.0
2018-Jun-12 13:30N 46°57' E 031°59'0 0.0
2018-Jun-12 13:00N 46°57' E 031°59'0 0.0
2018-Jun-12 12:30N 46°57' E 031°59'0 0.0
2018-Jun-12 12:00N 46°57' E 031°59'0 0.0
2018-Jun-12 11:28N 46°57' E 031°59'0 0.0
2018-Jun-12 11:00N 46°57' E 031°59'0 0.0
2018-Jun-12 10:30N 46°57' E 031°59'0 0.0
2018-Jun-12 10:00N 46°57' E 031°59'0 0.0
2018-Jun-12 09:30N 46°57' E 031°59'0 0.0
2018-Jun-12 09:00N 46°57' E 031°59'0 0.1
2018-Jun-12 08:30N 46°57' E 031°59'0 0.0
2018-Jun-12 08:00N 46°57' E 031°59'0 0.4
2018-Jun-12 07:30N 46°57' E 031°59'0 0.0
2018-Jun-12 07:00N 46°57' E 031°59'2 3.4
2018-Jun-12 06:30N 46°56' E 032°01'3 5.4
2018-Jun-12 06:00N 46°53' E 031°60'3 5.6
2018-Jun-12 05:30N 46°51' E 031°57'3 5.4
2018-Jun-12 05:00N 46°49' E 031°54'2 4.6
2018-Jun-12 04:30N 46°47' E 031°53'2 4.8
2018-Jun-12 04:00N 46°45' E 031°54'2 4.6
2018-Jun-12 03:30N 46°43' E 031°56'3 5.1
2018-Jun-12 03:00N 46°40' E 031°56'2 4.9
2018-Jun-12 02:30N 46°38' E 031°55'3 5.1
2018-Jun-12 02:00N 46°37' E 031°51'2 4.6
2018-Jun-12 01:29N 46°35' E 031°48'2 4.8
2018-Jun-12 01:00N 46°35' E 031°45'2 4.6
2018-Jun-12 00:30N 46°35' E 031°42'2 4.3
2018-Jun-11 23:59N 46°35' E 031°38'2 4.1
2018-Jun-11 23:30N 46°36' E 031°36'0 0.8
2018-Jun-11 23:00N 46°36' E 031°35'2 4.5
2018-Jun-11 22:30N 46°35' E 031°33'3 5.0
2018-Jun-11 21:59N 46°36' E 031°30'3 5.4
2018-Jun-11 21:30N 46°35' E 031°26'3 6.1
2018-Jun-11 21:00N 46°35' E 031°22'2 4.9
2018-Jun-11 20:30N 46°35' E 031°18'0 0.0
2018-Jun-11 19:59N 46°35' E 031°18'0 0.0
2018-Jun-11 19:30N 46°35' E 031°18'0 0.0
2018-Jun-11 19:00N 46°35' E 031°18'0 0.0
2018-Jun-11 18:30N 46°35' E 031°18'0 0.0
2018-Jun-11 18:00N 46°35' E 031°18'0 0.0
2018-Jun-11 17:30N 46°35' E 031°18'0 0.0
2018-Jun-11 17:00N 46°35' E 031°18'0 0.0
2018-Jun-11 16:30N 46°35' E 031°18'0 0.0
2018-Jun-11 16:00N 46°35' E 031°18'0 0.0
2018-Jun-11 15:30N 46°35' E 031°18'0 0.0
2018-Jun-11 15:00N 46°35' E 031°18'0 0.0
2018-Jun-11 14:30N 46°35' E 031°18'0 0.0
2018-Jun-11 14:00N 46°35' E 031°18'0 0.1
2018-Jun-11 13:30N 46°35' E 031°18'0 0.0
2018-Jun-11 13:00N 46°35' E 031°18'0 0.1
2018-Jun-11 12:28N 46°35' E 031°18'0 0.1
2018-Jun-11 12:00N 46°35' E 031°18'0 0.0
2018-Jun-11 11:30N 46°35' E 031°18'0 0.1
2018-Jun-11 11:00N 46°35' E 031°18'0 0.6
2018-Jun-11 10:30N 46°36' E 031°18'0 0.0
2018-Jun-11 09:59N 46°36' E 031°18'0 0.0
2018-Jun-11 09:30N 46°36' E 031°18'0 0.0
2018-Jun-11 09:00N 46°36' E 031°18'0 0.0
2018-Jun-11 08:28N 46°36' E 031°18'0 0.0
2018-Jun-11 08:00N 46°36' E 031°18'0 0.0
2018-Jun-11 07:30N 46°36' E 031°18'0 0.6
2018-Jun-11 06:59N 46°35' E 031°18'0 0.0
2018-Jun-11 06:30N 46°35' E 031°18'0 0.0
2018-Jun-11 06:00N 46°35' E 031°18'0 0.0
2018-Jun-11 05:30N 46°35' E 031°18'0 0.0
2018-Jun-11 05:00N 46°35' E 031°18'0 0.0
2018-Jun-11 04:29N 46°35' E 031°18'0 0.0
2018-Jun-11 03:42N 46°35' E 031°18'0 0.1
2018-Jun-11 03:28N 46°35' E 031°18'0 0.0
2018-Jun-11 03:00N 46°35' E 031°18'0 0.0
2018-Jun-11 02:30N 46°35' E 031°18'0 0.0
2018-Jun-11 00:56N 46°35' E 031°18'1 1.2
2018-Jun-10 23:58N 46°36' E 031°19'0 0.0
2018-Jun-10 23:17N 46°36' E 031°19'0 0.0
2018-Jun-10 22:58N 46°36' E 031°19'0 0.0
2018-Jun-10 22:30N 46°36' E 031°19'0 0.1
2018-Jun-10 22:00N 46°36' E 031°19'0 0.1
2018-Jun-10 21:30N 46°36' E 031°19'0 0.1
2018-Jun-10 21:00N 46°36' E 031°19'1 2.2
2018-Jun-10 20:30N 46°35' E 031°18'0 0.1
2018-Jun-10 19:59N 46°35' E 031°18'0 0.1
2018-Jun-10 19:28N 46°35' E 031°18'0 0.1
2018-Jun-10 18:36N 46°35' E 031°18'0 0.1
2018-Jun-10 18:30N 46°35' E 031°18'0 0.0
2018-Jun-10 16:51N 46°35' E 031°18'0 0.1
2018-Jun-10 16:03N 46°35' E 031°18'0 0.0
2018-Jun-10 15:48N 46°35' E 031°18'0 0.1
2018-Jun-10 15:06N 46°35' E 031°18'0 0.2
2018-Jun-10 14:36N 46°35' E 031°18'0 0.0
2018-Jun-10 14:28N 46°35' E 031°18'0 0.0
2018-Jun-10 13:28N 46°35' E 031°18'0 0.0
2018-Jun-10 13:00N 46°35' E 031°18'0 0.1
2018-Jun-10 12:28N 46°35' E 031°18'0 0.1
2018-Jun-10 11:37N 46°35' E 031°18'0 0.7
2018-Jun-10 11:30N 46°35' E 031°18'1 1.6
2018-Jun-10 11:00N 46°36' E 031°19'0 0.1
2018-Jun-10 09:43N 46°36' E 031°19'0 0.4
2018-Jun-10 09:30N 46°36' E 031°19'2 4.3
2018-Jun-10 09:00N 46°35' E 031°22'2 4.3
2018-Jun-10 08:30N 46°35' E 031°25'3 4.8
2018-Jun-10 07:58N 46°36' E 031°28'2 4.6
2018-Jun-10 07:30N 46°35' E 031°31'2 4.5
2018-Jun-10 07:00N 46°35' E 031°34'2 3.3
2018-Jun-10 06:30N 46°37' E 031°35'1 1.8
2018-Jun-10 06:00N 46°38' E 031°35'1 2.3
2018-Jun-10 05:23N 46°36' E 031°35'0 0.1
2018-Jun-10 05:00N 46°36' E 031°35'0 0.1
2018-Jun-10 04:30N 46°36' E 031°35'0 0.0
2018-Jun-10 04:00N 46°36' E 031°35'0 0.0
2018-Jun-10 03:26N 46°36' E 031°35'0 0.0
2018-Jun-10 03:00N 46°36' E 031°35'0 0.0
2018-Jun-10 02:30N 46°36' E 031°35'0 0.0
2018-Jun-10 02:00N 46°36' E 031°35'0 0.0
2018-Jun-10 01:30N 46°36' E 031°35'0 0.0
2018-Jun-10 01:00N 46°36' E 031°35'0 0.0
2018-Jun-10 00:30N 46°36' E 031°35'0 0.0
2018-Jun-10 00:00N 46°36' E 031°35'0 0.0
2018-Jun-09 23:30N 46°36' E 031°35'0 0.0
2018-Jun-09 23:00N 46°36' E 031°35'0 0.0
2018-Jun-09 22:30N 46°36' E 031°35'0 0.0
2018-Jun-09 22:00N 46°36' E 031°35'0 0.0
2018-Jun-09 21:30N 46°36' E 031°35'0 0.0
2018-Jun-09 21:00N 46°36' E 031°35'0 0.0
2018-Jun-09 20:30N 46°36' E 031°35'0 0.0
2018-Jun-09 20:00N 46°36' E 031°35'0 0.1
2018-Jun-09 19:30N 46°36' E 031°35'0 0.0
2018-Jun-09 19:00N 46°36' E 031°35'0 0.0
2018-Jun-09 18:30N 46°36' E 031°35'0 0.0
2018-Jun-09 18:00N 46°36' E 031°35'0 0.0
2018-Jun-09 17:30N 46°36' E 031°35'0 0.0
2018-Jun-09 17:00N 46°36' E 031°35'0 0.0
2018-Jun-09 16:30N 46°36' E 031°35'0 0.0
2018-Jun-09 16:00N 46°36' E 031°35'0 0.0
2018-Jun-09 14:59N 46°36' E 031°35'0 0.0
2018-Jun-09 14:30N 46°36' E 031°35'0 0.0
2018-Jun-09 14:00N 46°36' E 031°35'0 0.0
2018-Jun-09 13:29N 46°36' E 031°35'0 0.0
2018-Jun-09 13:00N 46°36' E 031°35'0 0.0
2018-Jun-09 12:29N 46°36' E 031°35'0 0.0
2018-Jun-09 12:00N 46°36' E 031°35'0 0.0
2018-Jun-09 11:30N 46°36' E 031°35'0 0.0
2018-Jun-09 10:58N 46°36' E 031°35'0 0.0
2018-Jun-09 10:29N 46°36' E 031°35'0 0.0
2018-Jun-09 09:59N 46°36' E 031°35'0 0.0
2018-Jun-09 09:30N 46°36' E 031°35'0 0.0
2018-Jun-09 08:58N 46°36' E 031°35'0 0.0
2018-Jun-09 08:30N 46°36' E 031°35'  
Track history (hours):
 
Tides and Currents Weather Stations Pressure Air Temp Water Temp Dewpoint Dewpoint Depression Visibility Wind Speed Wind Dir Waves Ship Positions

Nibulon 2

Last reported at 2018-Jun-19 08:26 UTC. Time now 2018-Jun-20 05:28 UTC.
Position N 46°57' E 031°59'.

Length 38 m; draft 2.6 m.

Type: Towing. MMSI: 272651000.

Date/timePositionNaut miles runAvg speedWind from/ knotsBaromVisibWave heightAir tempDewpointWater temp
2018-Jun-19 08:26N 46°57' E 031°59'0 0.7
2018-Jun-19 08:00N 46°57' E 031°59'0 0.0
2018-Jun-19 07:31N 46°57' E 031°59'0 0.0
2018-Jun-19 07:00N 46°57' E 031°59'0 0.0
2018-Jun-19 06:31N 46°57' E 031°59'0 0.0
2018-Jun-19 06:00N 46°57' E 031°59'0 0.0
2018-Jun-19 05:31N 46°57' E 031°59'0 0.0
2018-Jun-19 05:01N 46°57' E 031°59'0 0.0
2018-Jun-19 04:30N 46°57' E 031°59'0 0.0
2018-Jun-19 04:01N 46°57' E 031°59'0 0.7
2018-Jun-19 03:31N 46°56' E 031°59'2 3.5
2018-Jun-19 03:00N 46°55' E 032°01'2 3.9
2018-Jun-19 02:30N 46°54' E 032°00'2 3.9
2018-Jun-19 02:00N 46°52' E 031°58'2 4.1
2018-Jun-19 01:31N 46°51' E 031°56'2 4.2
2018-Jun-19 01:00N 46°49' E 031°54'2 3.9
2018-Jun-19 00:30N 46°47' E 031°53'2 4.2
2018-Jun-19 00:00N 46°45' E 031°53'2 4.1
2018-Jun-18 23:31N 46°44' E 031°56'2 4.0
2018-Jun-18 23:00N 46°42' E 031°56'2 4.2
2018-Jun-18 22:31N 46°40' E 031°56'2 4.1
2018-Jun-18 22:01N 46°38' E 031°55'2 4.2
2018-Jun-18 21:31N 46°37' E 031°52'2 4.3
2018-Jun-18 21:00N 46°36' E 031°49'2 4.7
2018-Jun-18 20:31N 46°36' E 031°46'3 5.1
2018-Jun-18 20:00N 46°35' E 031°42'2 4.5
2018-Jun-18 19:31N 46°35' E 031°39'2 4.3
2018-Jun-18 19:00N 46°36' E 031°36'0 0.8
2018-Jun-18 18:31N 46°37' E 031°35'0 0.2
2018-Jun-18 18:00N 46°36' E 031°35'0 0.6
2018-Jun-18 17:30N 46°37' E 031°35'1 1.4
2018-Jun-18 17:00N 46°36' E 031°34'0 0.1
2018-Jun-18 16:30N 46°36' E 031°35'0 0.0
2018-Jun-18 15:44N 46°36' E 031°35'0 0.0
2018-Jun-18 15:30N 46°36' E 031°35'1 0.1
2018-Jun-18 07:17N 46°37' E 031°35'0 0.0
2018-Jun-18 06:46N 46°37' E 031°35'0 0.0
2018-Jun-18 06:19N 46°37' E 031°35'0 0.0
2018-Jun-18 05:59N 46°37' E 031°35'0 0.0
2018-Jun-18 05:30N 46°37' E 031°35'0 0.9
2018-Jun-18 04:59N 46°36' E 031°35'0 0.0
2018-Jun-18 04:29N 46°36' E 031°35'0 0.0
2018-Jun-18 03:59N 46°36' E 031°35'0 0.0
2018-Jun-18 03:29N 46°36' E 031°35'0 0.0
2018-Jun-18 02:59N 46°36' E 031°35'0 0.0
2018-Jun-18 02:29N 46°36' E 031°35'0 0.0
2018-Jun-18 01:59N 46°36' E 031°35'0 0.0
2018-Jun-18 01:29N 46°36' E 031°35'0 0.0
2018-Jun-18 00:59N 46°36' E 031°35'0 0.0
2018-Jun-18 00:29N 46°36' E 031°35'0 0.0
2018-Jun-17 23:59N 46°36' E 031°35'0 0.0
2018-Jun-17 23:29N 46°36' E 031°35'0 0.0
2018-Jun-17 22:57N 46°36' E 031°35'0 0.0
2018-Jun-17 22:30N 46°36' E 031°35'2 1.5
2018-Jun-17 21:02N 46°36' E 031°39'1 3.6
2018-Jun-17 20:52N 46°35' E 031°40'1 3.6
2018-Jun-17 20:30N 46°35' E 031°41'2 3.5
2018-Jun-17 20:00N 46°36' E 031°44'2 3.5
2018-Jun-17 19:30N 46°36' E 031°47'2 3.5
2018-Jun-17 18:59N 46°36' E 031°49'2 3.6
2018-Jun-17 18:30N 46°37' E 031°51'2 3.5
2018-Jun-17 18:00N 46°37' E 031°53'2 3.6
2018-Jun-17 17:30N 46°39' E 031°55'2 3.8
2018-Jun-17 17:00N 46°40' E 031°56'2 3.6
2018-Jun-17 16:30N 46°42' E 031°56'2 3.4
2018-Jun-17 16:00N 46°44' E 031°55'2 3.6
2018-Jun-17 15:30N 46°45' E 031°53'2 4.0
2018-Jun-17 15:00N 46°47' E 031°53'2 3.4
2018-Jun-17 14:30N 46°49' E 031°54'2 3.8
2018-Jun-17 14:00N 46°50' E 031°56'2 3.8
2018-Jun-17 13:30N 46°52' E 031°58'2 3.7
2018-Jun-17 13:00N 46°53' E 031°60'2 3.7
2018-Jun-17 12:30N 46°55' E 032°01'1 2.9
2018-Jun-17 12:00N 46°56' E 032°01'1 2.3
2018-Jun-17 11:30N 46°56' E 031°59'0 0.1
2018-Jun-17 11:00N 46°56' E 031°59'0 0.5
2018-Jun-17 10:30N 46°57' E 031°59'0 0.0
2018-Jun-17 10:00N 46°57' E 031°59'0 0.4
2018-Jun-17 09:30N 46°57' E 031°59'0 0.0
2018-Jun-17 09:00N 46°57' E 031°59'0 0.0
2018-Jun-17 08:30N 46°57' E 031°59'0 0.0
2018-Jun-17 08:00N 46°57' E 031°59'0 0.0
2018-Jun-17 07:30N 46°57' E 031°59'0 0.0
2018-Jun-17 07:00N 46°57' E 031°59'0 0.2
2018-Jun-17 06:31N 46°56' E 031°59'0 0.2
2018-Jun-17 06:00N 46°57' E 031°59'0 0.0
2018-Jun-17 05:30N 46°57' E 031°59'0 0.0
2018-Jun-17 05:00N 46°57' E 031°59'0 0.0
2018-Jun-17 04:30N 46°57' E 031°59'0 0.0
2018-Jun-17 04:00N 46°57' E 031°59'0 0.0
2018-Jun-17 03:30N 46°57' E 031°59'0 0.0
2018-Jun-17 03:00N 46°57' E 031°59'0 0.0
2018-Jun-17 02:30N 46°57' E 031°59'0 0.2
2018-Jun-17 01:59N 46°57' E 031°59'0 0.9
2018-Jun-17 01:30N 46°56' E 031°58'0 0.0
2018-Jun-17 01:00N 46°56' E 031°58'0 0.0
2018-Jun-17 00:30N 46°56' E 031°58'0 0.1
2018-Jun-17 00:01N 46°56' E 031°59'0 0.9
2018-Jun-16 23:30N 46°56' E 031°59'2 3.7
2018-Jun-16 23:00N 46°55' E 032°01'2 4.7
2018-Jun-16 22:30N 46°53' E 031°59'2 4.8
2018-Jun-16 22:00N 46°51' E 031°57'2 4.8
2018-Jun-16 21:30N 46°49' E 031°55'2 4.3
2018-Jun-16 21:00N 46°47' E 031°53'2 4.6
2018-Jun-16 20:31N 46°45' E 031°53'2 4.6
2018-Jun-16 20:00N 46°43' E 031°56'2 4.6
2018-Jun-16 19:30N 46°41' E 031°56'2 4.6
2018-Jun-16 19:00N 46°39' E 031°56'2 4.9
2018-Jun-16 18:30N 46°37' E 031°53'3 5.1
2018-Jun-16 18:00N 46°36' E 031°50'3 5.1
2018-Jun-16 17:30N 46°36' E 031°46'2 4.8
2018-Jun-16 17:00N 46°35' E 031°43'2 4.4
2018-Jun-16 16:29N 46°35' E 031°39'3 4.8
2018-Jun-16 15:49N 46°36' E 031°35'0 0.1
2018-Jun-16 15:19N 46°36' E 031°35'0 0.3
2018-Jun-16 14:55N 46°36' E 031°35'0 0.1
2018-Jun-16 13:41N 46°36' E 031°35'1 7.8
2018-Jun-16 13:30N 46°35' E 031°33'9 7.0
2018-Jun-16 12:10N 46°35' E 031°20'1 7.5
2018-Jun-16 11:59N 46°35' E 031°18'12 2.2
2018-Jun-16 06:47N 46°36' E 031°35'0 1.1
2018-Jun-16 06:30N 46°36' E 031°34'3 4.7
2018-Jun-16 05:58N 46°35' E 031°31'2 5.2
2018-Jun-16 05:29N 46°35' E 031°27'3 5.3
2018-Jun-16 05:00N 46°35' E 031°23'3 5.4
2018-Jun-16 04:30N 46°35' E 031°19'2 4.8
2018-Jun-16 04:00N 46°34' E 031°16'0 0.1
2018-Jun-16 02:48N 46°34' E 031°16'0 0.0
2018-Jun-16 02:27N 46°34' E 031°16'0 0.1
2018-Jun-16 02:00N 46°34' E 031°16'0 0.1
2018-Jun-15 23:09N 46°34' E 031°16'0 0.0
2018-Jun-15 21:15N 46°34' E 031°16'12 1.3
2018-Jun-15 12:01N 46°35' E 031°34'1 4.5
2018-Jun-15 11:52N 46°36' E 031°35'0 0.1
2018-Jun-15 07:19N 46°36' E 031°34'1 2.9
2018-Jun-15 06:57N 46°35' E 031°34'3 4.8
2018-Jun-15 06:15N 46°36' E 031°29'1 5.7
2018-Jun-15 06:00N 46°35' E 031°27'4 5.5
2018-Jun-15 05:19N 46°35' E 031°21'2 5.6
2018-Jun-15 04:55N 46°35' E 031°18'2 3.1
2018-Jun-15 04:24N 46°34' E 031°16'0 0.0
2018-Jun-15 04:00N 46°34' E 031°16'0 0.0
2018-Jun-15 03:30N 46°34' E 031°16'0 0.0
2018-Jun-15 02:54N 46°34' E 031°16'0 0.0
2018-Jun-15 02:24N 46°34' E 031°16'0 0.0
2018-Jun-15 01:43N 46°34' E 031°16'0 0.0
2018-Jun-15 01:22N 46°34' E 031°16'0 0.1
2018-Jun-15 00:59N 46°34' E 031°16'0 0.1
2018-Jun-15 00:30N 46°34' E 031°16'0 0.0
2018-Jun-15 00:00N 46°34' E 031°16'0 0.0
2018-Jun-14 22:51N 46°34' E 031°16'0 0.1
2018-Jun-14 22:30N 46°34' E 031°16'0 0.0
2018-Jun-14 22:00N 46°34' E 031°16'0 0.0
2018-Jun-14 21:24N 46°34' E 031°16'0 0.0
2018-Jun-14 20:26N 46°34' E 031°16'0 0.0
2018-Jun-14 20:00N 46°34' E 031°16'0 0.0
2018-Jun-14 19:30N 46°34' E 031°16'0 0.0
2018-Jun-14 18:58N 46°34' E 031°16'0 0.0
2018-Jun-14 18:28N 46°34' E 031°16'0 0.0
2018-Jun-14 18:00N 46°34' E 031°16'0 0.0
2018-Jun-14 17:29N 46°34' E 031°16'0 0.0
2018-Jun-14 16:58N 46°34' E 031°16'0 0.0
2018-Jun-14 16:30N 46°34' E 031°16'0 0.0
2018-Jun-14 16:00N 46°34' E 031°16'0 0.0
2018-Jun-14 15:30N 46°34' E 031°16'0 0.0
2018-Jun-14 15:00N 46°34' E 031°16'0 0.0
2018-Jun-14 14:30N 46°34' E 031°16'0 0.0
2018-Jun-14 14:00N 46°34' E 031°16'0 0.0
2018-Jun-14 13:30N 46°34' E 031°16'0 0.0
2018-Jun-14 12:59N 46°34' E 031°16'0 0.0
2018-Jun-14 12:26N 46°34' E 031°16'0 0.0
2018-Jun-14 12:00N 46°34' E 031°16'0 0.0
2018-Jun-14 11:30N 46°34' E 031°16'0 0.0
2018-Jun-14 10:59N 46°34' E 031°16'0 0.0
2018-Jun-14 10:27N 46°34' E 031°16'0 0.0
2018-Jun-14 10:00N 46°34' E 031°16'0 0.0
2018-Jun-14 09:28N 46°34' E 031°16'0 0.0
2018-Jun-14 08:59N 46°34' E 031°16'0 0.0
2018-Jun-14 08:15N 46°34' E 031°16'0 0.0
2018-Jun-14 07:57N 46°34' E 031°16'0 0.0
2018-Jun-14 07:30N 46°34' E 031°16'0 0.0
2018-Jun-14 07:00N 46°34' E 031°16'0 0.0
2018-Jun-14 06:30N 46°34' E 031°16'0 0.0
2018-Jun-14 06:00N 46°34' E 031°16'0 0.4
2018-Jun-14 05:28N 46°35' E 031°16'1 2.2
2018-Jun-14 05:00N 46°35' E 031°17'2 3.7
2018-Jun-14 04:30N 46°35' E 031°20'2 3.7
2018-Jun-14 04:00N 46°35' E 031°23'2 3.6
2018-Jun-14 03:30N 46°35' E 031°25'2 3.8
2018-Jun-14 03:00N 46°35' E 031°28'2 3.3
2018-Jun-14 02:30N 46°36' E 031°30'1 1.5
2018-Jun-14 02:00N 46°36' E 031°31'0 0.0
2018-Jun-14 01:30N 46°36' E 031°31'0 0.0
2018-Jun-14 01:00N 46°36' E 031°31'0 0.0
2018-Jun-14 00:30N 46°36' E 031°31'0 0.0
2018-Jun-14 00:00N 46°36' E 031°31'0 0.0
2018-Jun-13 23:30N 46°36' E 031°31'0 0.0
2018-Jun-13 23:00N 46°36' E 031°31'0 0.0
2018-Jun-13 22:30N 46°36' E 031°31'0 0.0
2018-Jun-13 22:00N 46°36' E 031°31'0 0.0
2018-Jun-13 21:30N 46°36' E 031°31'0 0.7
2018-Jun-13 21:00N 46°35' E 031°31'2 3.5
2018-Jun-13 20:30N 46°35' E 031°33'2 3.5
2018-Jun-13 20:00N 46°36' E 031°35'1 1.2
2018-Jun-13 19:30N 46°36' E 031°35'0 0.1
2018-Jun-13 19:00N 46°36' E 031°35'0 0.1
2018-Jun-13 18:30N 46°36' E 031°35'0 0.1
2018-Jun-13 18:00N 46°36' E 031°35'0 0.0
2018-Jun-13 17:30N 46°36' E 031°35'0 0.0
2018-Jun-13 17:00N 46°36' E 031°35'0 0.1
2018-Jun-13 16:30N 46°36' E 031°35'0 0.0
2018-Jun-13 16:00N 46°36' E 031°35'0 0.0
2018-Jun-13 15:30N 46°36' E 031°35'0 0.0
2018-Jun-13 15:00N 46°36' E 031°35'0 0.0
2018-Jun-13 14:30N 46°36' E 031°35'0 0.0
2018-Jun-13 14:00N 46°36' E 031°35'0 0.0
2018-Jun-13 13:30N 46°36' E 031°35'0 0.0
2018-Jun-13 13:00N 46°36' E 031°35'0 0.0
2018-Jun-13 12:30N 46°36' E 031°35'0 0.0
2018-Jun-13 11:57N 46°36' E 031°35'0 0.0
2018-Jun-13 11:26N 46°36' E 031°35'0 0.0
2018-Jun-13 10:01N 46°36' E 031°35'0 0.0
2018-Jun-13 09:48N 46°36' E 031°35'0 0.0
2018-Jun-13 09:25N 46°36' E 031°35'0 0.0
2018-Jun-13 08:07N 46°36' E 031°35'0 0.9
2018-Jun-13 08:00N 46°36' E 031°36'1 2.2
2018-Jun-13 07:26N 46°36' E 031°37'4 3.9
2018-Jun-13 06:21N 46°35' E 031°43'1 3.8
2018-Jun-13 06:00N 46°35' E 031°45'2 3.7
2018-Jun-13 05:27N 46°36' E 031°48'2 3.5
2018-Jun-13 05:00N 46°36' E 031°50'2 3.5
2018-Jun-13 04:30N 46°37' E 031°52'2 3.4
2018-Jun-13 04:00N 46°38' E 031°54'2 3.8
2018-Jun-13 03:30N 46°39' E 031°56'2 3.8
2018-Jun-13 03:00N 46°41' E 031°56'2 3.9
2018-Jun-13 02:30N 46°43' E 031°56'2 3.8
2018-Jun-13 02:00N 46°45' E 031°54'2 3.8
2018-Jun-13 01:30N 46°46' E 031°53'2 3.9
2018-Jun-13 01:00N 46°48' E 031°53'2 4.2
2018-Jun-13 00:30N 46°50' E 031°55'2 4.1
2018-Jun-13 00:00N 46°51' E 031°57'2 4.0
2018-Jun-12 23:30N 46°53' E 031°59'2 4.0
2018-Jun-12 23:00N 46°55' E 032°01'2 3.1
2018-Jun-12 22:30N 46°56' E 031°60'1 1.2
2018-Jun-12 22:00N 46°56' E 031°59'0 0.6
2018-Jun-12 21:30N 46°56' E 031°59'0 0.6
2018-Jun-12 21:00N 46°56' E 031°59'0 0.1
2018-Jun-12 20:30N 46°56' E 031°59'0 0.2
2018-Jun-12 20:00N 46°57' E 031°59'0 0.2
2018-Jun-12 19:30N 46°57' E 031°59'0 0.0
2018-Jun-12 19:00N 46°57' E 031°59'0 0.0
2018-Jun-12 18:30N 46°57' E 031°59'0 0.0
2018-Jun-12 17:59N 46°57' E 031°59'0 0.0
2018-Jun-12 17:30N 46°57' E 031°59'0 0.0
2018-Jun-12 17:00N 46°57' E 031°59'0 0.0
2018-Jun-12 16:30N 46°57' E 031°59'0 0.0
2018-Jun-12 16:00N 46°57' E 031°59'0 0.1
2018-Jun-12 15:30N 46°57' E 031°59'0 0.1
2018-Jun-12 15:00N 46°57' E 031°59'0 0.2
2018-Jun-12 14:30N 46°57' E 031°59'0 0.0
2018-Jun-12 14:00N 46°57' E 031°59'0 0.0
2018-Jun-12 13:30N 46°57' E 031°59'0 0.0
2018-Jun-12 13:00N 46°57' E 031°59'0 0.0
2018-Jun-12 12:30N 46°57' E 031°59'0 0.0
2018-Jun-12 12:00N 46°57' E 031°59'0 0.0
2018-Jun-12 11:28N 46°57' E 031°59'0 0.0
2018-Jun-12 11:00N 46°57' E 031°59'0 0.0
2018-Jun-12 10:30N 46°57' E 031°59'0 0.0
2018-Jun-12 10:00N 46°57' E 031°59'0 0.0
2018-Jun-12 09:30N 46°57' E 031°59'0 0.0
2018-Jun-12 09:00N 46°57' E 031°59'0 0.1
2018-Jun-12 08:30N 46°57' E 031°59'0 0.0
2018-Jun-12 08:00N 46°57' E 031°59'0 0.4
2018-Jun-12 07:30N 46°57' E 031°59'0 0.0
2018-Jun-12 07:00N 46°57' E 031°59'2 3.4
2018-Jun-12 06:30N 46°56' E 032°01'3 5.4
2018-Jun-12 06:00N 46°53' E 031°60'3 5.6
2018-Jun-12 05:30N 46°51' E 031°57'3 5.4
2018-Jun-12 05:00N 46°49' E 031°54'2 4.6
2018-Jun-12 04:30N 46°47' E 031°53'2 4.8
2018-Jun-12 04:00N 46°45' E 031°54'2 4.6
2018-Jun-12 03:30N 46°43' E 031°56'3 5.1
2018-Jun-12 03:00N 46°40' E 031°56'2 4.9
2018-Jun-12 02:30N 46°38' E 031°55'3 5.1
2018-Jun-12 02:00N 46°37' E 031°51'2 4.6
2018-Jun-12 01:29N 46°35' E 031°48'2 4.8
2018-Jun-12 01:00N 46°35' E 031°45'2 4.6
2018-Jun-12 00:30N 46°35' E 031°42'2 4.3
2018-Jun-11 23:59N 46°35' E 031°38'2 4.1
2018-Jun-11 23:30N 46°36' E 031°36'0 0.8
2018-Jun-11 23:00N 46°36' E 031°35'2 4.5
2018-Jun-11 22:30N 46°35' E 031°33'3 5.0
2018-Jun-11 21:59N 46°36' E 031°30'3 5.4
2018-Jun-11 21:30N 46°35' E 031°26'3 6.1
2018-Jun-11 21:00N 46°35' E 031°22'2 4.9
2018-Jun-11 20:30N 46°35' E 031°18'0 0.0
2018-Jun-11 19:59N 46°35' E 031°18'0 0.0
2018-Jun-11 19:30N 46°35' E 031°18'0 0.0
2018-Jun-11 19:00N 46°35' E 031°18'0 0.0
2018-Jun-11 18:30N 46°35' E 031°18'0 0.0
2018-Jun-11 18:00N 46°35' E 031°18'0 0.0
2018-Jun-11 17:30N 46°35' E 031°18'0 0.0
2018-Jun-11 17:00N 46°35' E 031°18'0 0.0
2018-Jun-11 16:30N 46°35' E 031°18'0 0.0
2018-Jun-11 16:00N 46°35' E 031°18'0 0.0
2018-Jun-11 15:30N 46°35' E 031°18'0 0.0
2018-Jun-11 15:00N 46°35' E 031°18'0 0.0
2018-Jun-11 14:30N 46°35' E 031°18'0 0.0
2018-Jun-11 14:00N 46°35' E 031°18'0 0.1
2018-Jun-11 13:30N 46°35' E 031°18'0 0.0
2018-Jun-11 13:00N 46°35' E 031°18'0 0.1
2018-Jun-11 12:28N 46°35' E 031°18'0 0.1
2018-Jun-11 12:00N 46°35' E 031°18'0 0.0
2018-Jun-11 11:30N 46°35' E 031°18'0 0.1
2018-Jun-11 11:00N 46°35' E 031°18'0 0.6
2018-Jun-11 10:30N 46°36' E 031°18'0 0.0
2018-Jun-11 09:59N 46°36' E 031°18'0 0.0
2018-Jun-11 09:30N 46°36' E 031°18'0 0.0
2018-Jun-11 09:00N 46°36' E 031°18'0 0.0
2018-Jun-11 08:28N 46°36' E 031°18'0 0.0
2018-Jun-11 08:00N 46°36' E 031°18'0 0.0
2018-Jun-11 07:30N 46°36' E 031°18'0 0.6
2018-Jun-11 06:59N 46°35' E 031°18'0 0.0
2018-Jun-11 06:30N 46°35' E 031°18'0 0.0
2018-Jun-11 06:00N 46°35' E 031°18'0 0.0
2018-Jun-11 05:30N 46°35' E 031°18'0 0.0
2018-Jun-11 05:00N 46°35' E 031°18'0 0.0
2018-Jun-11 04:29N 46°35' E 031°18'0 0.0
2018-Jun-11 03:42N 46°35' E 031°18'0 0.1
2018-Jun-11 03:28N 46°35' E 031°18'0 0.0
2018-Jun-11 03:00N 46°35' E 031°18'0 0.0
2018-Jun-11 02:30N 46°35' E 031°18'0 0.0
2018-Jun-11 00:56N 46°35' E 031°18'1 1.2
2018-Jun-10 23:58N 46°36' E 031°19'0 0.0
2018-Jun-10 23:17N 46°36' E 031°19'0 0.0
2018-Jun-10 22:58N 46°36' E 031°19'0 0.0
2018-Jun-10 22:30N 46°36' E 031°19'0 0.1
2018-Jun-10 22:00N 46°36' E 031°19'0 0.1
2018-Jun-10 21:30N 46°36' E 031°19'0 0.1
2018-Jun-10 21:00N 46°36' E 031°19'1 2.2
2018-Jun-10 20:30N 46°35' E 031°18'0 0.1
2018-Jun-10 19:59N 46°35' E 031°18'0 0.1
2018-Jun-10 19:28N 46°35' E 031°18'0 0.1
2018-Jun-10 18:36N 46°35' E 031°18'0 0.1
2018-Jun-10 18:30N 46°35' E 031°18'0 0.0
2018-Jun-10 16:51N 46°35' E 031°18'0 0.1
2018-Jun-10 16:03N 46°35' E 031°18'0 0.0
2018-Jun-10 15:48N 46°35' E 031°18'0 0.1
2018-Jun-10 15:06N 46°35' E 031°18'0 0.2
2018-Jun-10 14:36N 46°35' E 031°18'0 0.0
2018-Jun-10 14:28N 46°35' E 031°18'0 0.0
2018-Jun-10 13:28N 46°35' E 031°18'0 0.0
2018-Jun-10 13:00N 46°35' E 031°18'0 0.1
2018-Jun-10 12:28N 46°35' E 031°18'0 0.1
2018-Jun-10 11:37N 46°35' E 031°18'0 0.7
2018-Jun-10 11:30N 46°35' E 031°18'1 1.6
2018-Jun-10 11:00N 46°36' E 031°19'0 0.1
2018-Jun-10 09:43N 46°36' E 031°19'0 0.4
2018-Jun-10 09:30N 46°36' E 031°19'2 4.3
2018-Jun-10 09:00N 46°35' E 031°22'2 4.3
2018-Jun-10 08:30N 46°35' E 031°25'3 4.8
2018-Jun-10 07:58N 46°36' E 031°28'2 4.6
2018-Jun-10 07:30N 46°35' E 031°31'2 4.5
2018-Jun-10 07:00N 46°35' E 031°34'2 3.3
2018-Jun-10 06:30N 46°37' E 031°35'1 1.8
2018-Jun-10 06:00N 46°38' E 031°35'1 2.3
2018-Jun-10 05:23N 46°36' E 031°35'0 0.1
2018-Jun-10 05:00N 46°36' E 031°35'0 0.1
2018-Jun-10 04:30N 46°36' E 031°35'0 0.0
2018-Jun-10 04:00N 46°36' E 031°35'0 0.0
2018-Jun-10 03:26N 46°36' E 031°35'0 0.0
2018-Jun-10 03:00N 46°36' E 031°35'0 0.0
2018-Jun-10 02:30N 46°36' E 031°35'0 0.0
2018-Jun-10 02:00N 46°36' E 031°35'0 0.0
2018-Jun-10 01:30N 46°36' E 031°35'0 0.0
2018-Jun-10 01:00N 46°36' E 031°35'0 0.0
2018-Jun-10 00:30N 46°36' E 031°35'0 0.0
2018-Jun-10 00:00N 46°36' E 031°35'0 0.0
2018-Jun-09 23:30N 46°36' E 031°35'0 0.0
2018-Jun-09 23:00N 46°36' E 031°35'0 0.0
2018-Jun-09 22:30N 46°36' E 031°35'0 0.0
2018-Jun-09 22:00N 46°36' E 031°35'0 0.0
2018-Jun-09 21:30N 46°36' E 031°35'0 0.0
2018-Jun-09 21:00N 46°36' E 031°35'0 0.0
2018-Jun-09 20:30N 46°36' E 031°35'0 0.0
2018-Jun-09 20:00N 46°36' E 031°35'0 0.1
2018-Jun-09 19:30N 46°36' E 031°35'0 0.0
2018-Jun-09 19:00N 46°36' E 031°35'0 0.0
2018-Jun-09 18:30N 46°36' E 031°35'0 0.0
2018-Jun-09 18:00N 46°36' E 031°35'0 0.0
2018-Jun-09 17:30N 46°36' E 031°35'0 0.0
2018-Jun-09 17:00N 46°36' E 031°35'0 0.0
2018-Jun-09 16:30N 46°36' E 031°35'0 0.0
2018-Jun-09 16:00N 46°36' E 031°35'0 0.0
2018-Jun-09 14:59N 46°36' E 031°35'0 0.0
2018-Jun-09 14:30N 46°36' E 031°35'0 0.0
2018-Jun-09 14:00N 46°36' E 031°35'0 0.0
2018-Jun-09 13:29N 46°36' E 031°35'0 0.0
2018-Jun-09 13:00N 46°36' E 031°35'0 0.0
2018-Jun-09 12:29N 46°36' E 031°35'0 0.0
2018-Jun-09 12:00N 46°36' E 031°35'0 0.0
2018-Jun-09 11:30N 46°36' E 031°35'0 0.0
2018-Jun-09 10:58N 46°36' E 031°35'0 0.0
2018-Jun-09 10:29N 46°36' E 031°35'0 0.0
2018-Jun-09 09:59N 46°36' E 031°35'0 0.0
2018-Jun-09 09:30N 46°36' E 031°35'0 0.0
2018-Jun-09 08:58N 46°36' E 031°35'0 0.0
2018-Jun-09 08:30N 46°36' E 031°35'  

Dump ship's entire track history